Terminal Aerodrome Forecast
Issued by NWS Lake Charles, LA

Home | Current Version | Previous Version | Text Only | Print | Product List | Glossary On
Versions: 1 2 3 4 5 6 7 8 9 10 11 12 13 14 15
000
FTUS44 KLCH 170500
TAFARA
TAF
KARA 170520Z 1706/1806 VRB04KT P6SM SCT035
     FM171200 07007KT P6SM BKN035
     FM180100 VRB04KT P6SM SCT025 BKN035=

USA.gov is the U.S. government's official web portal to all federal, state and local government web resources and services.